Time;durP1;ratioP1;P1;durP2;ratioP2;P2;SDS_P1;SDS_P2;PMS_P1;PMS_P2;Temp;Humidity;BMP_temperature;BMP_pressure;BME280_temperature;BME280_humidity;BME280_pressure;Samples;Min_cycle;Max_cycle;Signal;HPM_P1;HPM_P2
2022/08/04 00:01:35;;;;;;;2.73;2.20;;;24.90;94.50;;;;;;5001968;28;20473;-71
2022/08/04 00:04:06;;;;;;;2.60;2.10;;;24.70;95.00;;;;;;5005192;28;20422;-70
2022/08/04 00:06:44;;;;;;;2.20;2.00;;;24.60;95.40;;;;;;5004313;28;20447;-70
2022/08/04 00:09:35;;;;;;;2.10;1.90;;;24.80;95.90;;;;;;5004839;28;20482;-69
2022/08/04 00:12:02;;;;;;;3.03;1.90;;;24.70;96.00;;;;;;4993847;28;20577;-70
2022/08/04 00:14:32;;;;;;;2.60;1.93;;;24.70;96.40;;;;;;5004515;28;20728;-68
2022/08/04 00:16:58;;;;;;;2.90;2.10;;;24.70;96.40;;;;;;5003829;28;20878;-69
2022/08/04 00:19:31;;;;;;;2.37;1.63;;;24.80;96.70;;;;;;5004908;28;20483;-70
2022/08/04 00:22:04;;;;;;;2.20;1.97;;;24.80;96.70;;;;;;5005113;28;20463;-70
2022/08/04 00:24:32;;;;;;;2.23;2.03;;;24.80;96.70;;;;;;5004949;28;20422;-68
2022/08/04 00:26:58;;;;;;;2.23;2.03;;;24.90;96.80;;;;;;5004718;28;20477;-69
2022/08/04 00:29:25;;;;;;;3.30;2.00;;;24.80;97.00;;;;;;5004919;28;20462;-71
2022/08/04 00:31:53;;;;;;;2.40;2.10;;;24.80;97.10;;;;;;5005288;28;20448;-70
2022/08/04 00:34:19;;;;;;;2.07;1.93;;;24.70;97.10;;;;;;5004618;28;20418;-68
2022/08/04 00:36:45;;;;;;;2.40;2.20;;;24.60;97.30;;;;;;5004764;28;20434;-68
2022/08/04 00:39:12;;;;;;;2.17;1.97;;;24.60;97.40;;;;;;5004156;28;20414;-67
2022/08/04 00:42:06;;;;;;;2.10;1.80;;;24.50;97.70;;;;;;5003636;28;20430;-71
2022/08/04 00:44:38;;;;;;;2.20;2.00;;;24.60;97.80;;;;;;5003520;28;20415;-69
2022/08/04 00:47:15;;;;;;;2.50;2.30;;;24.50;98.10;;;;;;5004914;28;20461;-72
2022/08/04 00:50:03;;;;;;;2.30;2.10;;;24.50;98.10;;;;;;5004464;28;20465;-69
2022/08/04 00:52:55;;;;;;;2.93;1.83;;;24.30;98.40;;;;;;5004060;28;20406;-68
2022/08/04 00:55:33;;;;;;;2.27;2.07;;;24.40;98.50;;;;;;5004322;28;20506;-69
2022/08/04 00:58:28;;;;;;;3.20;2.30;;;24.40;98.50;;;;;;5004782;28;20398;-69
2022/08/04 01:00:59;;;;;;;2.57;1.73;;;24.40;98.20;;;;;;5004621;28;20768;-70
2022/08/04 01:03:58;;;;;;;2.03;1.70;;;24.30;98.20;;;;;;5004408;28;21015;-69
2022/08/04 01:06:32;;;;;;;2.20;1.70;;;24.40;98.50;;;;;;5002856;28;20442;-70
2022/08/04 01:09:33;;;;;;;3.97;2.23;;;24.40;98.60;;;;;;5004328;28;20633;-70
2022/08/04 01:12:31;;;;;;;2.10;2.00;;;24.30;98.70;;;;;;5003953;28;20926;-71
2022/08/04 01:15:09;;;;;;;3.43;2.10;;;24.30;99.00;;;;;;5004611;28;20399;-69
2022/08/04 01:17:34;;;;;;;3.90;2.33;;;24.10;99.60;;;;;;5004039;28;20494;-69
2022/08/04 01:20:07;;;;;;;2.60;2.40;;;24.00;99.90;;;;;;5004436;28;20446;-68
2022/08/04 01:22:32;;;;;;;2.20;1.70;;;24.00;99.90;;;;;;5004335;28;20318;-70
2022/08/04 01:25:16;;;;;;;3.60;2.10;;;24.10;99.90;;;;;;5003617;28;20502;-71
2022/08/04 01:28:07;;;;;;;2.40;1.93;;;24.10;99.90;;;;;;5002450;28;20202;-72
2022/08/04 01:30:37;;;;;;;1.83;1.73;;;24.10;99.90;;;;;;5004103;28;20411;-68
2022/08/04 01:33:13;;;;;;;2.00;1.87;;;24.10;99.90;;;;;;5003767;28;20433;-70
2022/08/04 01:35:45;;;;;;;2.40;2.20;;;24.20;99.90;;;;;;5003946;28;20599;-71
2022/08/04 01:38:29;;;;;;;2.27;2.07;;;24.00;99.90;;;;;;5003738;28;20411;-69
2022/08/04 01:41:09;;;;;;;2.13;2.03;;;24.00;99.70;;;;;;5002738;28;20505;-70
2022/08/04 01:43:42;;;;;;;3.20;1.90;;;23.90;99.90;;;;;;5004230;28;20418;-71
2022/08/04 01:46:13;;;;;;;2.63;2.07;;;23.90;99.90;;;;;;5003719;28;20808;-71
2022/08/04 01:48:43;;;;;;;1.97;1.70;;;23.90;99.90;;;;;;5003665;28;20465;-69
2022/08/04 01:51:09;;;;;;;1.70;1.60;;;23.80;99.90;;;;;;5003605;28;20411;-70
2022/08/04 01:53:37;;;;;;;2.50;1.63;;;23.80;99.90;;;;;;5004197;28;20570;-70
2022/08/04 01:56:05;;;;;;;2.13;1.90;;;23.70;99.90;;;;;;5005922;28;20423;-70
2022/08/04 01:58:32;;;;;;;3.30;2.03;;;23.70;99.90;;;;;;5007555;28;20419;-70
2022/08/04 02:01:04;;;;;;;2.90;2.07;;;23.70;99.90;;;;;;5007688;28;20466;-70
2022/08/04 02:03:30;;;;;;;6.47;2.43;;;23.70;99.90;;;;;;5007408;28;20465;-71
2022/08/04 02:06:11;;;;;;;2.17;1.90;;;23.80;99.90;;;;;;5007488;28;21268;-69
2022/08/04 02:09:05;;;;;;;2.63;2.27;;;23.80;99.90;;;;;;5008872;28;20450;-73
2022/08/04 02:11:31;;;;;;;2.17;1.60;;;23.80;99.90;;;;;;5006932;28;20468;-70
2022/08/04 02:14:44;;;;;;;2.60;2.10;;;23.80;99.90;;;;;;4997578;28;20438;-70
2022/08/04 02:17:18;;;;;;;2.40;1.90;;;23.70;99.90;;;;;;5006679;28;20239;-69
2022/08/04 02:20:39;;;;;;;2.50;1.80;;;23.50;99.90;;;;;;5007077;28;20411;-70
2022/08/04 02:23:13;;;;;;;2.10;1.90;;;23.50;99.90;;;;;;5000737;28;20851;-70
2022/08/04 02:25:45;;;;;;;2.67;2.47;;;23.50;99.90;;;;;;5006652;28;20444;-72
2022/08/04 02:28:15;;;;;;;2.30;2.10;;;23.50;99.90;;;;;;5007096;28;20454;-69
2022/08/04 02:31:17;;;;;;;2.60;2.40;;;23.50;99.90;;;;;;5006790;28;20469;-70
2022/08/04 02:33:45;;;;;;;2.50;2.30;;;23.40;99.90;;;;;;5006852;28;20399;-71
2022/08/04 02:36:28;;;;;;;3.80;2.60;;;23.40;99.90;;;;;;5007071;28;21369;-69
2022/08/04 02:39:00;;;;;;;2.57;2.37;;;23.40;99.90;;;;;;5006988;28;20406;-70
2022/08/04 02:41:29;;;;;;;2.90;2.60;;;23.20;99.90;;;;;;5005992;28;20423;-70
2022/08/04 02:44:01;;;;;;;3.67;2.40;;;23.20;99.90;;;;;;5006897;28;20538;-69
2022/08/04 02:46:28;;;;;;;5.87;2.60;;;23.20;99.90;;;;;;5007206;28;20465;-69
2022/08/04 02:48:55;;;;;;;2.77;1.83;;;23.20;99.90;;;;;;5000646;28;20490;-70
2022/08/04 02:51:28;;;;;;;2.60;2.40;;;23.10;99.90;;;;;;4995873;28;20789;-68
2022/08/04 02:53:56;;;;;;;2.40;2.20;;;23.10;99.90;;;;;;5007219;28;21010;-70
2022/08/04 02:56:26;;;;;;;2.33;1.90;;;23.00;99.90;;;;;;5005990;28;20513;-70
2022/08/04 02:59:09;;;;;;;1.97;1.80;;;23.10;99.90;;;;;;5006862;28;20751;-71
2022/08/04 03:01:35;;;;;;;2.80;2.60;;;23.10;99.90;;;;;;5006541;28;20403;-73
2022/08/04 03:04:16;;;;;;;2.40;2.07;;;23.10;99.90;;;;;;5006328;28;20411;-69
2022/08/04 03:07:10;;;;;;;2.13;1.90;;;23.10;99.90;;;;;;5005115;28;20453;-69
2022/08/04 03:09:50;;;;;;;3.50;2.43;;;23.10;99.90;;;;;;5006460;28;20462;-68
2022/08/04 03:12:37;;;;;;;2.83;2.50;;;23.00;99.90;;;;;;5005876;28;20413;-70
2022/08/04 03:15:11;;;;;;;2.63;2.43;;;22.90;99.90;;;;;;5006118;28;21002;-70
2022/08/04 03:17:43;;;;;;;2.30;2.00;;;22.90;99.90;;;;;;4996942;28;20441;-68
2022/08/04 03:20:59;;;;;;;3.10;2.57;;;22.90;99.90;;;;;;4997503;28;20459;-69
2022/08/04 03:23:40;;;;;;;14.07;2.33;;;22.90;99.90;;;;;;4979308;28;20470;-71
2022/08/04 03:26:08;;;;;;;2.60;2.10;;;22.70;99.90;;;;;;5006410;28;20446;-71
2022/08/04 03:29:07;;;;;;;3.40;2.60;;;22.60;99.90;;;;;;4999570;28;20461;-70
2022/08/04 03:31:48;;;;;;;2.97;2.10;;;22.50;99.90;;;;;;5006495;28;20865;-71
2022/08/04 03:34:23;;;;;;;2.20;2.00;;;22.40;99.90;;;;;;5006001;28;20493;-70
2022/08/04 03:37:01;;;;;;;3.00;2.17;;;22.40;99.90;;;;;;5005676;28;20611;-70
2022/08/04 03:39:51;;;;;;;3.00;2.00;;;22.30;99.90;;;;;;5004100;28;20985;-70
2022/08/04 03:42:51;;;;;;;2.53;2.17;;;22.40;99.90;;;;;;5003878;28;20414;-69
2022/08/04 03:45:39;;;;;;;3.20;2.20;;;22.50;99.90;;;;;;5005724;28;20407;-70
2022/08/04 03:48:15;;;;;;;3.10;2.10;;;22.40;99.90;;;;;;5005827;28;20463;-67
2022/08/04 03:54:25;;;;;;;2.73;2.40;;;22.30;99.90;;;;;;5002356;28;20465;-68
2022/08/04 03:57:40;;;;;;;3.27;2.10;;;22.40;99.90;;;;;;5005268;28;20431;-68
2022/08/04 04:00:10;;;;;;;3.67;2.53;;;22.40;99.90;;;;;;4970467;28;20426;-69
2022/08/04 04:03:10;;;;;;;2.60;2.40;;;22.50;99.90;;;;;;5005222;28;20422;-69
2022/08/04 04:06:05;;;;;;;3.90;2.67;;;22.60;99.90;;;;;;5004749;28;20435;-70
2022/08/04 04:08:48;;;;;;;3.50;2.53;;;22.60;99.90;;;;;;5004414;28;20466;-70
2022/08/04 04:11:51;;;;;;;2.43;2.13;;;22.60;99.90;;;;;;4993625;28;20415;-71
2022/08/04 04:14:39;;;;;;;3.73;2.57;;;22.60;99.90;;;;;;5004879;28;20510;-70
2022/08/04 04:17:07;;;;;;;4.90;2.40;;;22.50;99.90;;;;;;5004899;28;20478;-69
2022/08/04 04:20:04;;;;;;;2.40;2.20;;;22.50;99.90;;;;;;5004051;28;20514;-70
2022/08/04 04:22:58;;;;;;;2.40;2.20;;;22.50;99.90;;;;;;5004650;28;21153;-71
2022/08/04 04:25:52;;;;;;;2.17;1.97;;;22.50;99.90;;;;;;5004862;28;20429;-71
2022/08/04 04:28:36;;;;;;;3.00;2.03;;;22.60;99.90;;;;;;5004742;28;20446;-70
2022/08/04 04:31:17;;;;;;;2.60;2.13;;;22.60;99.90;;;;;;5004689;28;21263;-68
2022/08/04 04:33:58;;;;;;;1.87;1.77;;;22.60;99.90;;;;;;5004551;28;20915;-70
2022/08/04 04:36:35;;;;;;;1.97;1.83;;;22.50;99.90;;;;;;5003349;28;20435;-69
2022/08/04 04:39:26;;;;;;;1.83;1.73;;;22.50;99.90;;;;;;5004753;28;20406;-70
2022/08/04 04:42:09;;;;;;;2.53;1.70;;;22.60;99.90;;;;;;5004634;28;20419;-70
2022/08/04 04:45:03;;;;;;;2.07;1.80;;;22.70;99.90;;;;;;5004010;28;20425;-70
2022/08/04 04:48:01;;;;;;;3.13;2.23;;;22.70;99.90;;;;;;5003779;28;20439;-70
2022/08/04 04:50:39;;;;;;;2.20;2.00;;;22.60;99.90;;;;;;5004517;28;20395;-70
2022/08/04 04:53:27;;;;;;;4.70;2.03;;;22.60;99.90;;;;;;5004434;28;20521;-70
2022/08/04 04:56:33;;;;;;;4.43;1.90;;;22.80;99.90;;;;;;5004221;28;20438;-69
2022/08/04 04:59:01;;;;;;;2.00;1.77;;;22.80;99.90;;;;;;4983178;28;20808;-68
2022/08/04 05:01:57;;;;;;;2.67;1.73;;;22.80;99.90;;;;;;5004432;28;20410;-72
2022/08/04 05:04:59;;;;;;;3.80;2.17;;;22.80;99.90;;;;;;5004311;28;20422;-70
2022/08/04 05:07:57;;;;;;;2.50;1.90;;;22.80;99.90;;;;;;5004005;28;20422;-69
2022/08/04 05:10:37;;;;;;;2.40;2.03;;;22.80;99.90;;;;;;5004358;28;20502;-70
2022/08/04 05:13:37;;;;;;;3.83;2.00;;;22.80;99.90;;;;;;5003927;28;20414;-70
2022/08/04 05:16:28;;;;;;;2.07;1.57;;;22.90;99.90;;;;;;5003832;28;20454;-68
2022/08/04 05:19:05;;;;;;;2.10;1.90;;;22.70;99.90;;;;;;5004547;28;20410;-70
2022/08/04 05:21:34;;;;;;;2.57;2.20;;;22.80;99.90;;;;;;5004070;28;20406;-68
2022/08/04 05:24:04;;;;;;;2.40;2.20;;;22.90;99.90;;;;;;5003732;28;20446;-69
2022/08/04 05:26:34;;;;;;;2.40;2.20;;;22.90;99.90;;;;;;5003928;28;20442;-70
2022/08/04 05:29:05;;;;;;;3.13;2.40;;;23.00;99.90;;;;;;5003385;28;20450;-70
2022/08/04 05:31:36;;;;;;;3.40;2.03;;;23.20;99.90;;;;;;5007903;28;20410;-68
2022/08/04 05:34:38;;;;;;;2.47;2.23;;;23.30;99.90;;;;;;5007933;28;20465;-68
2022/08/04 05:37:09;;;;;;;3.53;1.90;;;23.50;99.90;;;;;;5000427;28;20450;-70
2022/08/04 05:39:56;;;;;;;2.40;2.10;;;23.70;99.90;;;;;;5008203;28;20418;-70
2022/08/04 05:42:24;;;;;;;2.03;1.80;;;23.90;99.90;;;;;;5007105;28;20414;-70
2022/08/04 05:44:50;;;;;;;2.70;2.07;;;24.00;99.90;;;;;;5007598;28;20419;-68
2022/08/04 05:47:16;;;;;;;2.80;2.50;;;24.20;99.90;;;;;;5007549;28;20441;-68
2022/08/04 05:49:43;;;;;;;3.33;2.50;;;24.20;99.90;;;;;;5007855;28;20470;-67
2022/08/04 05:52:10;;;;;;;2.70;2.33;;;24.30;99.90;;;;;;5007317;28;20784;-71
2022/08/04 05:54:37;;;;;;;2.23;2.03;;;24.40;99.90;;;;;;5007400;28;20406;-69
2022/08/04 05:57:04;;;;;;;2.53;2.33;;;24.50;99.90;;;;;;5006966;28;20435;-69
2022/08/04 05:59:33;;;;;;;2.70;2.50;;;24.60;99.90;;;;;;5007611;28;20778;-69
2022/08/04 06:02:00;;;;;;;2.47;2.03;;;24.70;99.90;;;;;;5007075;28;20905;-69
2022/08/04 06:04:31;;;;;;;3.00;2.20;;;24.80;99.90;;;;;;5007539;28;20498;-69
2022/08/04 06:06:57;;;;;;;3.00;2.27;;;25.00;99.90;;;;;;5007323;28;20593;-68
2022/08/04 06:09:23;;;;;;;3.47;2.20;;;25.10;99.90;;;;;;5007290;28;20477;-69
2022/08/04 06:11:50;;;;;;;2.93;2.40;;;25.20;99.90;;;;;;5007195;28;20180;-69
2022/08/04 06:14:20;;;;;;;2.67;2.13;;;25.30;99.90;;;;;;5007090;28;20179;-69
2022/08/04 06:16:47;;;;;;;4.07;2.40;;;25.40;99.90;;;;;;5007282;28;20450;-69
2022/08/04 06:19:15;;;;;;;2.57;2.37;;;25.60;99.90;;;;;;5007819;28;20415;-69
2022/08/04 06:21:44;;;;;;;3.10;2.73;;;25.70;99.90;;;;;;5007594;28;20425;-69
2022/08/04 06:24:13;;;;;;;4.30;2.87;;;25.80;99.90;;;;;;5006925;28;20697;-69
2022/08/04 06:26:39;;;;;;;5.30;3.07;;;26.00;99.90;;;;;;5006803;28;20439;-68
2022/08/04 06:29:15;;;;;;;3.30;2.20;;;26.10;99.90;;;;;;5006719;28;20508;-69
2022/08/04 06:31:45;;;;;;;3.60;2.60;;;26.20;99.90;;;;;;5007003;28;20186;-68
2022/08/04 06:34:14;;;;;;;4.60;2.63;;;26.30;99.90;;;;;;5006740;28;20391;-69
2022/08/04 06:36:41;;;;;;;3.70;2.33;;;26.40;99.90;;;;;;5006833;28;20639;-69
2022/08/04 06:39:08;;;;;;;2.77;2.07;;;26.50;99.90;;;;;;5005983;28;20422;-68
2022/08/04 06:41:34;;;;;;;3.00;2.37;;;26.60;99.70;;;;;;5003727;28;20438;-68
2022/08/04 06:44:06;;;;;;;3.43;2.30;;;26.80;99.50;;;;;;5005149;28;20427;-69
2022/08/04 06:46:34;;;;;;;3.57;2.70;;;26.90;99.30;;;;;;5006269;28;20932;-69
2022/08/04 06:49:00;;;;;;;3.30;2.37;;;27.10;99.00;;;;;;5006613;28;20529;-68
2022/08/04 06:51:29;;;;;;;3.43;2.30;;;27.20;99.10;;;;;;5006690;28;20827;-68
2022/08/04 06:53:55;;;;;;;2.57;2.37;;;27.30;98.90;;;;;;5006542;28;20226;-69
2022/08/04 06:56:22;;;;;;;2.70;2.23;;;27.40;98.50;;;;;;5006647;28;20467;-68
2022/08/04 06:58:50;;;;;;;6.27;2.40;;;27.50;98.50;;;;;;5006779;28;20187;-70
2022/08/04 07:01:18;;;;;;;2.60;2.40;;;27.60;97.60;;;;;;5006288;28;20577;-69
2022/08/04 07:03:44;;;;;;;3.50;2.53;;;27.70;96.60;;;;;;5006816;28;20524;-70
2022/08/04 07:06:11;;;;;;;3.00;2.70;;;27.80;96.30;;;;;;5007412;28;20435;-71
2022/08/04 07:08:37;;;;;;;2.50;2.20;;;27.80;95.80;;;;;;5006452;28;20681;-67
2022/08/04 07:11:04;;;;;;;3.80;2.73;;;28.00;95.90;;;;;;5006316;28;20844;-68
2022/08/04 07:13:30;;;;;;;2.77;2.57;;;28.10;96.00;;;;;;5005815;28;20439;-69
2022/08/04 07:15:57;;;;;;;3.30;2.70;;;28.10;95.90;;;;;;5004932;28;20415;-70
2022/08/04 07:18:23;;;;;;;3.27;2.50;;;28.20;96.30;;;;;;5005464;28;20219;-68
2022/08/04 07:20:49;;;;;;;4.00;2.50;;;28.40;96.20;;;;;;5006797;28;20817;-70
2022/08/04 07:23:16;;;;;;;3.20;2.50;;;28.50;96.10;;;;;;5005833;28;20477;-71
2022/08/04 07:25:43;;;;;;;3.23;2.40;;;28.60;96.00;;;;;;5006068;28;20793;-71
2022/08/04 07:28:09;;;;;;;3.73;2.50;;;28.70;95.10;;;;;;5008356;28;20465;-69
2022/08/04 07:30:36;;;;;;;4.03;2.40;;;28.60;94.60;;;;;;5007539;28;20415;-71
2022/08/04 07:33:02;;;;;;;4.80;2.20;;;28.60;93.20;;;;;;5007371;28;20426;-71
2022/08/04 07:35:28;;;;;;;4.00;2.57;;;28.70;93.60;;;;;;5005533;28;20415;-71
2022/08/04 07:37:54;;;;;;;5.63;2.03;;;28.80;93.00;;;;;;5005881;28;20187;-70
2022/08/04 07:40:20;;;;;;;2.80;2.23;;;28.90;92.90;;;;;;5005557;28;20441;-68
2022/08/04 07:42:46;;;;;;;5.67;2.33;;;29.10;92.50;;;;;;5005206;28;20191;-68
2022/08/04 07:45:12;;;;;;;2.73;2.50;;;29.30;92.20;;;;;;5004672;28;20214;-69
2022/08/04 07:47:41;;;;;;;4.63;2.60;;;29.40;92.10;;;;;;5005297;28;20270;-69
2022/08/04 07:50:13;;;;;;;3.90;2.50;;;29.40;91.40;;;;;;5005132;28;20415;-68
2022/08/04 07:52:39;;;;;;;3.00;2.30;;;29.30;92.00;;;;;;4995738;28;20415;-69
2022/08/04 07:55:05;;;;;;;4.07;2.40;;;29.50;91.60;;;;;;5005118;28;20407;-66
2022/08/04 07:57:31;;;;;;;4.57;2.47;;;29.60;91.00;;;;;;5005188;28;20537;-67
2022/08/04 07:59:57;;;;;;;3.93;2.20;;;29.60;90.40;;;;;;5005275;28;21312;-68
2022/08/04 08:02:23;;;;;;;3.77;2.10;;;29.70;90.10;;;;;;5005180;28;20259;-69
2022/08/04 08:04:49;;;;;;;5.37;2.73;;;29.80;90.10;;;;;;5005481;28;20187;-69
2022/08/04 08:07:17;;;;;;;6.93;2.73;;;29.70;89.10;;;;;;5005358;28;20442;-69
2022/08/04 08:09:43;;;;;;;3.83;2.27;;;29.90;89.30;;;;;;5005006;28;20802;-68
2022/08/04 08:12:10;;;;;;;5.50;2.80;;;30.00;88.10;;;;;;5005019;28;20549;-68
2022/08/04 08:14:36;;;;;;;4.97;2.43;;;29.80;89.30;;;;;;5004480;28;20172;-71
2022/08/04 08:17:03;;;;;;;3.63;2.30;;;30.00;90.00;;;;;;5004736;28;21008;-69
2022/08/04 08:19:33;;;;;;;2.30;2.10;;;30.10;89.00;;;;;;5004673;28;20473;-67
2022/08/04 08:22:00;;;;;;;3.73;2.20;;;30.20;88.60;;;;;;5004843;28;20415;-69
2022/08/04 08:24:27;;;;;;;4.37;2.40;;;30.40;88.80;;;;;;5005009;28;20414;-70
2022/08/04 08:26:53;;;;;;;2.20;2.00;;;30.50;87.50;;;;;;5003105;28;20438;-70
2022/08/04 08:29:19;;;;;;;3.13;2.50;;;30.50;86.20;;;;;;5004071;28;20540;-71
2022/08/04 08:31:44;;;;;;;4.00;2.60;;;30.70;87.10;;;;;;5004473;28;20183;-69
2022/08/04 08:34:12;;;;;;;3.33;2.57;;;30.60;85.60;;;;;;5003974;28;20946;-68
2022/08/04 08:36:46;;;;;;;4.87;2.37;;;30.60;85.10;;;;;;5004264;28;20249;-68
2022/08/04 08:39:15;;;;;;;6.33;2.00;;;30.70;85.90;;;;;;5004583;28;20752;-70
2022/08/04 08:42:06;;;;;;;2.73;2.30;;;30.70;85.30;;;;;;5003489;28;20844;-69
2022/08/04 08:45:29;;;;;;;4.03;2.50;;;30.90;84.80;;;;;;5003574;28;20821;-69
2022/08/04 08:47:57;;;;;;;3.77;2.13;;;30.90;85.20;;;;;;4943278;28;21026;-69
2022/08/04 08:50:35;;;;;;;5.90;2.23;;;31.20;85.00;;;;;;4943570;29;20433;-69
2022/08/04 08:53:22;;;;;;;8.10;2.33;;;31.30;84.10;;;;;;4985447;28;20820;-69
2022/08/04 08:56:06;;;;;;;2.70;2.47;;;31.20;82.70;;;;;;5004048;28;20975;-70
2022/08/04 08:58:57;;;;;;;3.00;2.40;;;31.50;83.30;;;;;;5004076;28;21005;-72
2022/08/04 09:01:45;;;;;;;2.50;2.20;;;31.40;83.30;;;;;;5004071;28;20394;-70
2022/08/04 09:04:42;;;;;;;3.37;2.70;;;31.50;83.60;;;;;;5003240;28;21017;-67
2022/08/04 09:07:25;;;;;;;3.83;2.53;;;31.60;83.30;;;;;;4997865;28;20457;-68
2022/08/04 09:10:03;;;;;;;3.80;2.73;;;31.60;84.00;;;;;;5003817;28;20454;-69
2022/08/04 09:12:35;;;;;;;2.90;2.40;;;31.80;82.10;;;;;;5004579;28;20429;-69
2022/08/04 09:15:20;;;;;;;6.60;2.67;;;31.70;83.90;;;;;;5004189;28;20426;-69
2022/08/04 09:17:59;;;;;;;7.50;2.37;;;31.80;82.30;;;;;;5003837;28;21265;-68
2022/08/04 09:20:31;;;;;;;4.00;2.53;;;31.90;82.40;;;;;;5003520;28;20764;-67
2022/08/04 09:23:17;;;;;;;4.70;2.67;;;32.10;81.70;;;;;;5003824;28;20746;-71
2022/08/04 09:25:53;;;;;;;5.43;2.70;;;32.00;81.30;;;;;;5003747;28;20485;-71
2022/08/04 09:28:23;;;;;;;6.10;2.83;;;32.00;82.00;;;;;;5004166;28;20461;-70
2022/08/04 09:31:05;;;;;;;4.97;2.90;;;32.30;80.30;;;;;;5003687;28;20410;-71
2022/08/04 09:34:03;;;;;;;6.70;2.40;;;32.10;79.80;;;;;;5003486;28;20415;-69
2022/08/04 09:36:41;;;;;;;3.70;2.70;;;32.30;78.00;;;;;;4999983;28;20481;-68
2022/08/04 09:39:22;;;;;;;3.83;2.50;;;32.40;78.70;;;;;;5003866;28;20411;-70
2022/08/04 09:42:27;;;;;;;6.73;2.70;;;32.60;78.30;;;;;;5003515;28;20970;-69
2022/08/04 09:45:16;;;;;;;4.00;2.17;;;32.60;77.20;;;;;;5002489;28;20414;-70
2022/08/04 09:47:42;;;;;;;3.07;2.43;;;32.70;76.90;;;;;;5003920;28;20418;-70
2022/08/04 09:50:38;;;;;;;3.30;2.30;;;32.80;76.00;;;;;;5003488;28;20406;-68
2022/08/04 09:53:13;;;;;;;4.00;2.00;;;32.90;76.20;;;;;;5003742;28;20180;-68
2022/08/04 09:55:45;;;;;;;2.80;2.33;;;33.00;71.40;;;;;;5003571;28;20475;-70
2022/08/04 09:58:32;;;;;;;2.40;2.20;;;33.20;73.10;;;;;;5004023;28;20427;-68
2022/08/04 10:01:02;;;;;;;2.70;2.50;;;33.30;73.90;;;;;;5003352;28;20415;-70
2022/08/04 10:03:34;;;;;;;2.60;2.40;;;33.40;72.60;;;;;;5003633;28;20407;-68
2022/08/04 10:06:00;;;;;;;2.70;2.10;;;33.40;74.00;;;;;;5003876;28;20434;-70
2022/08/04 10:08:29;;;;;;;2.90;2.63;;;33.40;71.80;;;;;;5003684;28;20601;-69
2022/08/04 10:11:13;;;;;;;2.83;2.17;;;33.50;69.10;;;;;;5003429;28;20791;-68
2022/08/04 10:14:06;;;;;;;5.13;2.63;;;33.70;69.50;;;;;;5003539;28;20501;-69
2022/08/04 10:16:41;;;;;;;2.30;2.10;;;33.90;68.10;;;;;;5004504;28;20458;-67
2022/08/04 10:19:27;;;;;;;4.97;2.90;;;33.90;68.90;;;;;;5007077;28;20464;-70
2022/08/04 10:22:24;;;;;;;3.20;2.30;;;34.10;67.50;;;;;;5007127;28;20422;-70
2022/08/04 10:24:52;;;;;;;2.10;1.93;;;34.20;67.70;;;;;;5006793;28;20403;-70
2022/08/04 10:27:31;;;;;;;3.40;2.30;;;34.30;64.40;;;;;;5007020;28;20836;-69
2022/08/04 10:30:10;;;;;;;3.77;2.47;;;34.40;64.50;;;;;;5006593;28;20458;-69
2022/08/04 10:33:04;;;;;;;3.63;2.60;;;34.20;63.50;;;;;;5006444;28;20405;-70
2022/08/04 10:35:45;;;;;;;4.17;2.47;;;34.20;64.30;;;;;;5006761;28;20465;-70
2022/08/04 10:38:19;;;;;;;4.70;2.43;;;34.30;64.30;;;;;;5006875;28;20429;-70
2022/08/04 10:40:53;;;;;;;2.40;2.30;;;34.60;63.70;;;;;;5006826;28;20418;-70
2022/08/04 10:43:41;;;;;;;2.93;2.10;;;34.80;63.40;;;;;;5006757;28;20787;-69
2022/08/04 10:46:43;;;;;;;3.23;2.20;;;35.00;60.40;;;;;;5004903;28;20978;-70
2022/08/04 10:49:28;;;;;;;3.90;2.10;;;34.80;61.30;;;;;;5001112;28;20508;-70
2022/08/04 10:52:01;;;;;;;2.00;1.90;;;34.90;61.40;;;;;;5006587;28;20526;-71
2022/08/04 10:54:42;;;;;;;4.20;2.00;;;35.10;60.80;;;;;;5006605;28;20510;-70
2022/08/04 10:57:32;;;;;;;3.50;2.00;;;35.00;58.30;;;;;;5006327;28;20434;-68
2022/08/04 11:00:18;;;;;;;2.50;2.30;;;35.00;58.30;;;;;;4976975;28;20904;-70
2022/08/04 11:02:44;;;;;;;4.60;2.50;;;34.80;58.10;;;;;;5006196;28;20411;-71
2022/08/04 11:05:41;;;;;;;2.27;2.13;;;35.10;57.70;;;;;;5006218;28;20419;-70
2022/08/04 11:08:15;;;;;;;2.73;1.93;;;36.20;55.70;;;;;;4989764;28;20204;-69
2022/08/04 11:10:50;;;;;;;2.30;1.90;;;37.10;55.30;;;;;;5006204;28;20487;-71
2022/08/04 11:13:16;;;;;;;3.70;2.57;;;37.40;52.30;;;;;;5006017;28;20923;-70
2022/08/04 11:15:51;;;;;;;2.33;2.13;;;37.60;51.90;;;;;;5005040;28;20446;-70
2022/08/04 11:18:36;;;;;;;2.70;2.07;;;38.10;50.50;;;;;;5006314;28;20457;-70
2022/08/04 11:21:20;;;;;;;2.27;2.07;;;37.40;51.70;;;;;;5006001;28;20439;-69
2022/08/04 11:24:25;;;;;;;2.60;2.07;;;37.60;50.50;;;;;;5006413;28;20903;-70
2022/08/04 11:27:04;;;;;;;2.03;1.80;;;37.70;49.70;;;;;;4987603;28;20955;-70
2022/08/04 11:30:08;;;;;;;2.30;2.10;;;38.70;48.10;;;;;;5005645;28;21248;-69
2022/08/04 11:32:56;;;;;;;2.63;1.90;;;40.40;45.60;;;;;;5004531;28;20481;-69
2022/08/04 11:35:56;;;;;;;2.20;1.90;;;41.70;45.00;;;;;;5005682;28;20426;-70
2022/08/04 11:38:47;;;;;;;2.83;2.10;;;41.90;41.90;;;;;;5006142;28;20430;-75
2022/08/04 11:41:19;;;;;;;2.07;1.90;;;41.60;41.40;;;;;;5005427;28;20416;-69
2022/08/04 11:43:57;;;;;;;2.30;1.70;;;42.60;41.30;;;;;;5005588;28;20501;-70
2022/08/04 11:46:29;;;;;;;2.30;2.10;;;43.50;40.10;;;;;;5005638;28;20434;-70
2022/08/04 11:49:40;;;;;;;2.80;1.77;;;43.30;38.40;;;;;;5005775;28;20520;-72
2022/08/04 11:52:07;;;;;;;3.20;1.70;;;42.40;38.10;;;;;;4955678;28;20522;-71
2022/08/04 11:54:33;;;;;;;2.00;1.90;;;42.80;38.30;;;;;;4964376;28;20455;-71
2022/08/04 11:56:59;;;;;;;2.27;2.07;;;43.60;38.30;;;;;;4983763;28;20446;-71
2022/08/04 11:59:28;;;;;;;1.73;1.57;;;44.70;36.00;;;;;;5005369;28;20911;-74
2022/08/04 12:02:37;;;;;;;2.63;1.67;;;45.10;35.20;;;;;;5004879;28;20461;-70
2022/08/04 12:05:06;;;;;;;1.80;1.70;;;44.80;34.50;;;;;;5005489;28;20721;-70
2022/08/04 12:07:59;;;;;;;2.43;2.27;;;45.00;34.00;;;;;;5005294;28;20211;-72
2022/08/04 12:10:50;;;;;;;2.13;1.80;;;43.30;36.40;;;;;;5005275;28;20535;-70
2022/08/04 12:13:42;;;;;;;1.67;1.57;;;44.90;34.70;;;;;;5004841;28;20167;-70
2022/08/04 12:16:55;;;;;;;3.58;1.52;;;44.40;34.10;;;;;;4976722;28;20277;-69
2022/08/04 12:19:36;;;;;;;1.80;1.70;;;45.00;33.70;;;;;;4979634;28;20234;-67
2022/08/04 12:22:08;;;;;;;2.03;1.93;;;43.70;34.70;;;;;;5005097;28;20530;-72
2022/08/04 12:24:41;;;;;;;2.43;2.07;;;43.30;35.10;;;;;;5004928;28;20183;-70
2022/08/04 12:27:16;;;;;;;1.83;1.73;;;43.50;35.70;;;;;;5003679;28;20195;-70
2022/08/04 12:29:43;;;;;;;2.07;1.87;;;44.20;34.60;;;;;;5005046;28;20293;-72
2022/08/04 12:32:24;;;;;;;2.20;1.90;;;42.30;36.50;;;;;;5004124;28;20530;-70
2022/08/04 12:35:22;;;;;;;2.43;2.20;;;42.40;36.80;;;;;;5004353;28;20498;-70
2022/08/04 12:38:05;;;;;;;1.87;1.77;;;43.10;35.20;;;;;;5004378;28;20407;-71
2022/08/04 12:40:50;;;;;;;2.30;2.00;;;43.40;34.90;;;;;;5004443;28;20496;-72
2022/08/04 12:43:30;;;;;;;2.87;2.57;;;43.60;35.30;;;;;;5004613;28;20406;-70
2022/08/04 12:46:03;;;;;;;3.83;2.00;;;42.20;36.00;;;;;;5003118;28;20801;-71
2022/08/04 12:48:30;;;;;;;2.30;2.10;;;40.30;38.50;;;;;;5004275;28;20963;-71
2022/08/04 12:50:57;;;;;;;3.10;2.30;;;39.90;38.90;;;;;;5004281;28;20779;-72
2022/08/04 12:53:33;;;;;;;2.63;2.43;;;39.60;39.40;;;;;;5004361;28;20835;-70
2022/08/04 12:56:00;;;;;;;3.83;2.80;;;39.60;40.00;;;;;;5004540;28;20427;-71
2022/08/04 12:58:29;;;;;;;2.17;2.00;;;41.10;38.50;;;;;;5004615;28;20421;-70
2022/08/04 13:01:06;;;;;;;2.23;2.03;;;42.20;36.80;;;;;;5003629;28;20421;-69
2022/08/04 13:03:48;;;;;;;6.03;2.03;;;42.00;37.00;;;;;;5004454;28;21363;-73
2022/08/04 13:06:15;;;;;;;4.07;2.20;;;41.80;37.00;;;;;;5003967;28;20438;-73
2022/08/04 13:08:44;;;;;;;2.57;2.23;;;42.00;36.50;;;;;;5003939;28;20454;-71
2022/08/04 13:11:11;;;;;;;2.30;2.10;;;43.10;35.00;;;;;;5002863;28;20445;-70
2022/08/04 13:13:38;;;;;;;2.77;1.70;;;43.30;34.80;;;;;;5004241;28;20273;-70
2022/08/04 13:16:09;;;;;;;3.50;2.03;;;43.20;35.30;;;;;;5003165;28;20213;-70
2022/08/04 13:18:39;;;;;;;3.05;2.00;;;44.20;34.40;;;;;;5003867;28;20181;-71
2022/08/04 13:21:14;;;;;;;4.38;2.30;;;45.10;32.90;;;;;;5003919;28;20655;-71
2022/08/04 13:23:44;;;;;;;1.80;1.67;;;44.50;34.10;;;;;;5000451;28;20265;-71
2022/08/04 13:26:14;;;;;;;2.08;1.88;;;45.20;34.10;;;;;;5003636;28;20207;-70
2022/08/04 13:28:45;;;;;;;2.45;1.92;;;45.80;31.80;;;;;;5003920;28;20218;-71
2022/08/04 13:31:19;;;;;;;2.10;2.00;;;46.90;30.70;;;;;;5003404;28;20742;-69
2022/08/04 13:33:48;;;;;;;2.08;1.88;;;47.00;30.50;;;;;;5003871;28;20179;-70
2022/08/04 13:36:16;;;;;;;2.40;2.20;;;46.50;30.40;;;;;;5003815;28;20195;-69
2022/08/04 13:38:51;;;;;;;2.63;2.25;;;46.70;30.40;;;;;;5003432;28;20187;-70
2022/08/04 13:41:19;;;;;;;2.45;2.05;;;47.70;29.80;;;;;;5003902;28;20186;-70
2022/08/04 13:43:53;;;;;;;2.22;2.03;;;47.10;29.70;;;;;;5003520;28;20180;-70